• Join FlightAware (Why Join?)
  • Login
  • US Flag 
10:34PM EDT


 

Airport Tracker/Info


-or-


 

Live Flight TrackerFlight Track Log ✈ CSN6812 ✈ 09-Jul-2013 ✈ ZWSH / KHG - ZWWW / URC

Flight Track Log - Related Links

Times and Time Zones

All times are in EDT time to prevent confusion due to time zone crossing. See the CSN6812 flight status page for this flight to view local times or setup timezone preferences in your user account.

Time Position Orientation Groundspeed Altitude Reporting Facility
EDT Latitude Longitude Course Direction KTS MPH feet Rate Location/Type
10:49PM 39.6249 76.1988 59° Northeast  Level Estimated
10:50PM 39.7062 76.3774 59° Northeast  Level Estimated
10:51PM 39.7873 76.5564 59° Northeast  Level Estimated
10:52PM 39.8681 76.7359 60° Northeast  Level Estimated
10:53PM 39.9486 76.9158 60° Northeast  Level Estimated
10:54PM 40.0289 77.0961 60° Northeast  Level Estimated
10:55PM 40.1088 77.2768 60° Northeast  Level Estimated
10:56PM 40.1885 77.4580 60° Northeast  Level Estimated
10:57PM 40.2679 77.6395 60° Northeast  Level Estimated
10:58PM 40.3470 77.8215 60° Northeast  Level Estimated
10:59PM 40.4259 78.0040 60° Northeast  Level Estimated
11:00PM 40.5044 78.1868 60° Northeast  Level Estimated
11:01PM 40.5826 78.3701 61° Northeast  Level Estimated
11:02PM 40.6606 78.5538 61° Northeast  Level Estimated
11:03PM 40.7383 78.7380 61° Northeast  Level Estimated
11:04PM 40.8157 78.9225 61° Northeast  Level Estimated
11:05PM 40.8927 79.1075 61° Northeast  Level Estimated
11:06PM 40.9695 79.2930 61° Northeast  Level Estimated
11:07PM 41.0460 79.4788 61° Northeast  Level Estimated
11:08PM 41.1222 79.6651 61° Northeast  Level Estimated
11:09PM 41.1981 79.8518 62° Northeast  Level Estimated
11:10PM 41.2737 80.0390 62° Northeast  Level Estimated
11:11PM 41.3490 80.2266 62° Northeast  Level Estimated
11:12PM 41.4240 80.4146 62° Northeast  Level Estimated
11:13PM 41.4986 80.6031 62° Northeast  Level Estimated
11:14PM 41.5730 80.7920 62° Northeast  Level Estimated
11:15PM 41.6470 80.9813 62° Northeast  Level Estimated
11:16PM 41.7208 81.1711 62° Northeast  Level Estimated
11:17PM 41.7942 81.3613 63° Northeast  Level Estimated
11:18PM 41.8673 81.5519 63° Northeast  Level Estimated
11:19PM 41.9401 81.7430 63° Northeast  Level Estimated
11:20PM 42.0126 81.9345 63° Northeast  Level Estimated
11:21PM 42.0848 82.1264 63° Northeast  Level Estimated
11:22PM 42.1566 82.3188 63° Northeast  Level Estimated
11:23PM 42.2281 82.5116 63° Northeast  Level Estimated
11:24PM 42.2993 82.7048 63° Northeast  Level Estimated
11:25PM 42.3702 82.8985 64° Northeast  Level Estimated
11:26PM 42.4407 83.0927 64° Northeast  Level Estimated
11:27PM 42.5109 83.2872 64° Northeast  Level Estimated
11:28PM 42.5808 83.4822 64° Northeast  Level Estimated
11:29PM 42.6504 83.6776 64° Northeast  Level Estimated
11:30PM 42.7196 83.8735 64° Northeast  Level Estimated
11:31PM 42.7885 84.0698 64° Northeast  Level Estimated
11:32PM 42.8571 84.2666 65° Northeast  Level Estimated
11:33PM 42.9253 84.4637 65° Northeast  Level Estimated
11:34PM 42.9931 84.6613 65° Northeast  Level Estimated
11:35PM 43.0607 84.8594 65° Northeast  Level Estimated
11:36PM 43.1278 85.0579 65° Northeast  Level Estimated
11:37PM 43.1947 85.2568 65° Northeast  Level Estimated
11:38PM 43.2612 85.4562 65° Northeast  Level Estimated
11:39PM 43.3274 85.6560 65° Northeast  Level Estimated
11:40PM 43.3932 85.8562 66° East  Level Estimated
11:41PM 43.4586 86.0568 66° East  Level Estimated
11:42PM 43.5237 86.2579 66° East  Level Estimated
11:43PM 43.5885 86.4595 66° East  Level Estimated
11:44PM 43.6529 86.6614 66° East  Level Estimated
11:45PM 43.7169 86.8638 66° East  Level Estimated
11:46PM 43.7806 87.0666 66° East  Level Estimated
11:47PM 43.8439 87.2699 67° East  Level Estimated
11:48PM 43.9069 87.4736 67° East  Level Estimated
11:49PM 43.9071 87.4742 67° East  Level Estimated
11:50PM 43.9071 87.4742 144° Southeast  Level Estimated
11:51PM 43.9071 87.4742 144° Southeast  Level Estimated
11:52PM 43.9071 87.4742 144° Southeast  Level Estimated
11:53PM 43.9071 87.4742 144° Southeast  Level Estimated
11:54PM 43.9071 87.4742 144° Southeast  Level Estimated
11:55PM 43.9071 87.4742 144° Southeast  Level Estimated
11:56PM 43.9071 87.4742 144° Southeast  Level Estimated
11:57PM 43.9071 87.4742 144° Southeast  Level Estimated
11:58PM 43.9071 87.4742 144° Southeast  Level Estimated
11:59PM 43.9071 87.4742 144° Southeast  Level Estimated
12:00AM 43.9071 87.4742 144° Southeast  Level Estimated
12:01AM 43.9071 87.4742 144° Southeast  Level Estimated
12:02AM 43.9071 87.4742 144° Southeast  Level Estimated
12:03AM 43.9071 87.4742 144° Southeast  Level Estimated
12:04AM 43.9071 87.4742 144° Southeast  Level Estimated